Time;durP1;ratioP1;P1;durP2;ratioP2;P2;SDS_P1;SDS_P2;PMS_P1;PMS_P2;Temp;Humidity;BMP_temperature;BMP_pressure;BME280_temperature;BME280_humidity;BME280_pressure;Samples;Min_cycle;Max_cycle;Signal;HPM_P1;HPM_P2
2023/08/30 00:00:28;;;;;;;2.22;1.83;;;;;;;;;;4977340;28;20038;-81
2023/08/30 00:02:54;;;;;;;2.75;1.80;;;;;;;;;;4981040;28;20114;-80
2023/08/30 00:05:19;;;;;;;5.55;1.83;;;;;;;;;;4981370;28;20093;-82
2023/08/30 00:07:45;;;;;;;2.85;1.95;;;;;;;;;;4982120;28;20046;-80
2023/08/30 00:10:10;;;;;;;2.47;1.67;;;;;;;;;;4977705;28;20039;-82
2023/08/30 00:12:36;;;;;;;1.67;1.55;;;;;;;;;;4985135;28;20596;-81
2023/08/30 00:15:01;;;;;;;2.00;1.70;;;;;;;;;;4976290;28;20034;-82
2023/08/30 00:17:27;;;;;;;1.70;1.50;;;;;;;;;;4977979;28;20460;-80
2023/08/30 00:19:54;;;;;;;1.80;1.45;;;;;;;;;;4973145;28;20154;-81
2023/08/30 00:22:21;;;;;;;1.80;1.60;;;;;;;;;;4966751;28;20034;-81
2023/08/30 00:24:47;;;;;;;2.08;1.70;;;;;;;;;;4976090;28;20034;-80
2023/08/30 00:27:12;;;;;;;2.03;1.50;;;;;;;;;;4972715;28;20035;-80
2023/08/30 00:29:38;;;;;;;2.28;1.48;;;;;;;;;;4988023;28;20034;-80
2023/08/30 00:32:05;;;;;;;2.45;1.65;;;;;;;;;;4981227;28;20078;-82
2023/08/30 00:34:30;;;;;;;4.03;1.65;;;;;;;;;;4977988;28;20485;-80
2023/08/30 00:36:56;;;;;;;2.55;1.70;;;;;;;;;;4979862;28;20039;-80
2023/08/30 00:39:21;;;;;;;2.45;1.30;;;;;;;;;;4978704;28;20046;-80
2023/08/30 00:41:47;;;;;;;1.83;1.30;;;;;;;;;;4983908;28;20045;-80
2023/08/30 00:44:12;;;;;;;1.42;1.30;;;;;;;;;;4973187;28;20039;-81
2023/08/30 00:46:38;;;;;;;2.80;1.40;;;;;;;;;;4983327;28;20028;-80
2023/08/30 00:49:05;;;;;;;1.70;1.40;;;;;;;;;;4965022;28;20084;-80
2023/08/30 00:51:31;;;;;;;1.48;1.30;;;;;;;;;;4973345;28;20035;-80
2023/08/30 00:54:01;;;;;;;1.30;1.20;;;;;;;;;;4975181;28;20035;-80
2023/08/30 00:56:30;;;;;;;1.73;1.20;;;;;;;;;;4968096;28;20035;-81
2023/08/30 00:58:56;;;;;;;1.40;1.30;;;;;;;;;;4988833;28;20046;-80
2023/08/30 01:01:22;;;;;;;1.45;1.23;;;;;;;;;;4983619;28;20034;-81
2023/08/30 01:03:48;;;;;;;1.35;1.10;;;;;;;;;;4987106;28;20027;-80
2023/08/30 01:06:13;;;;;;;1.65;1.20;;;;;;;;;;4981298;28;20408;-80
2023/08/30 01:08:41;;;;;;;2.15;1.00;;;;;;;;;;4986129;28;20027;-80
2023/08/30 01:11:25;;;;;;;1.23;1.08;;;;;;;;;;4975069;28;20497;-80
2023/08/30 01:13:56;;;;;;;;;;;;;;;;;;4978112;28;20038;-80
2023/08/30 01:16:23;;;;;;;0.90;0.90;;;;;;;;;;4973575;28;20020;-80
2023/08/30 01:18:56;;;;;;;1.20;1.10;;;;;;;;;;4974196;28;20051;-82
2023/08/30 01:21:44;;;;;;;1.15;1.00;;;;;;;;;;4974029;28;20038;-83
2023/08/30 01:24:14;;;;;;;1.13;1.00;;;;;;;;;;4994689;28;20101;-83
2023/08/30 01:26:59;;;;;;;2.25;1.10;;;;;;;;;;4977711;28;20528;-83
2023/08/30 01:29:26;;;;;;;1.33;1.20;;;;;;;;;;4976598;28;20034;-83
2023/08/30 01:31:53;;;;;;;1.67;1.20;;;;;;;;;;4995238;28;20035;-83
2023/08/30 01:34:19;;;;;;;1.30;1.20;;;;;;;;;;4984751;28;20034;-83
2023/08/30 01:36:44;;;;;;;2.00;1.20;;;;;;;;;;4985072;28;20031;-85
2023/08/30 01:39:12;;;;;;;1.77;1.10;;;;;;;;;;4984778;28;20065;-83
2023/08/30 01:41:38;;;;;;;2.35;1.10;;;;;;;;;;4979954;28;20035;-83
2023/08/30 01:44:07;;;;;;;1.27;0.90;;;;;;;;;;4983489;28;20036;-83
2023/08/30 01:46:34;;;;;;;0.88;0.88;;;;;;;;;;4975620;28;20077;-81
2023/08/30 01:49:05;;;;;;;1.45;0.90;;;;;;;;;;4980252;28;20050;-81
2023/08/30 01:51:31;;;;;;;3.63;1.13;;;;;;;;;;4973516;28;20054;-81
2023/08/30 01:53:57;;;;;;;2.47;1.00;;;;;;;;;;4964902;28;20094;-83
2023/08/30 01:56:23;;;;;;;1.42;1.00;;;;;;;;;;4990814;28;20022;-84
2023/08/30 01:58:48;;;;;;;1.30;1.20;;;;;;;;;;4973265;28;20097;-84
2023/08/30 02:01:15;;;;;;;1.80;1.30;;;;;;;;;;4984177;28;20515;-84
2023/08/30 02:03:43;;;;;;;1.52;1.30;;;;;;;;;;4992775;28;20033;-84
2023/08/30 02:06:14;;;;;;;3.55;1.50;;;;;;;;;;4977058;28;20077;-84
2023/08/30 02:08:52;;;;;;;1.50;1.40;;;;;;;;;;4981077;28;20035;-83
2023/08/30 02:11:23;;;;;;;1.30;1.20;;;;;;;;;;4951713;28;20122;-82
2023/08/30 02:13:50;;;;;;;2.13;1.40;;;;;;;;;;4978069;28;20504;-83
2023/08/30 02:16:17;;;;;;;1.88;1.15;;;;;;;;;;4974427;28;20038;-81
2023/08/30 02:18:44;;;;;;;2.30;1.45;;;;;;;;;;4963430;28;20054;-83
2023/08/30 02:21:10;;;;;;;2.55;1.48;;;;;;;;;;4960665;28;20389;-82
2023/08/30 02:23:35;;;;;;;1.90;1.50;;;;;;;;;;4989594;28;20133;-83
2023/08/30 02:26:05;;;;;;;1.73;1.50;;;;;;;;;;4974104;28;20042;-84
2023/08/30 02:28:30;;;;;;;1.45;1.35;;;;;;;;;;4970669;28;20038;-83
2023/08/30 02:30:56;;;;;;;2.33;1.50;;;;;;;;;;4977034;28;20058;-82
2023/08/30 02:33:22;;;;;;;1.40;1.30;;;;;;;;;;4986227;28;20045;-83
2023/08/30 02:35:47;;;;;;;2.05;1.42;;;;;;;;;;4986332;28;20034;-82
2023/08/30 02:38:13;;;;;;;2.58;1.52;;;;;;;;;;4978463;28;20089;-82
2023/08/30 02:40:38;;;;;;;1.75;1.25;;;;;;;;;;4970866;28;20035;-80
2023/08/30 02:43:03;;;;;;;2.83;1.42;;;;;;;;;;4973670;28;20080;-81
2023/08/30 02:45:29;;;;;;;2.53;1.50;;;;;;;;;;4958490;28;20027;-82
2023/08/30 02:47:59;;;;;;;2.05;1.40;;;;;;;;;;4973390;28;20038;-81
2023/08/30 02:50:25;;;;;;;2.15;1.50;;;;;;;;;;4965001;28;20038;-82
2023/08/30 02:52:51;;;;;;;1.85;1.40;;;;;;;;;;4957550;28;20080;-82
2023/08/30 02:55:17;;;;;;;1.80;1.42;;;;;;;;;;4959968;28;20074;-81
2023/08/30 02:57:42;;;;;;;1.60;1.40;;;;;;;;;;4970317;28;20128;-81
2023/08/30 03:00:08;;;;;;;3.45;1.42;;;;;;;;;;4964621;28;20031;-81
2023/08/30 03:02:34;;;;;;;2.60;1.63;;;;;;;;;;4963502;28;20034;-81
2023/08/30 03:05:00;;;;;;;1.48;1.35;;;;;;;;;;4977711;28;20045;-81
2023/08/30 03:07:28;;;;;;;1.58;1.48;;;;;;;;;;4980784;28;20129;-81
2023/08/30 03:09:53;;;;;;;2.42;1.60;;;;;;;;;;4987302;28;20035;-81
2023/08/30 03:12:20;;;;;;;3.25;1.50;;;;;;;;;;4989909;28;20128;-81
2023/08/30 03:14:46;;;;;;;1.63;1.52;;;;;;;;;;4969441;28;20042;-80
2023/08/30 03:17:12;;;;;;;2.65;1.80;;;;;;;;;;4986277;28;20560;-81
2023/08/30 03:19:38;;;;;;;3.17;1.70;;;;;;;;;;4961520;28;20126;-81
2023/08/30 03:22:03;;;;;;;2.95;1.80;;;;;;;;;;4973518;28;20039;-80
2023/08/30 03:24:29;;;;;;;3.65;1.63;;;;;;;;;;4957932;28;20027;-81
2023/08/30 03:26:54;;;;;;;3.63;1.50;;;;;;;;;;4959588;28;20080;-80
2023/08/30 03:29:20;;;;;;;2.88;1.52;;;;;;;;;;4972201;28;20046;-83
2023/08/30 03:31:46;;;;;;;1.95;1.60;;;;;;;;;;4967946;28;20501;-81
2023/08/30 03:34:11;;;;;;;2.53;1.85;;;;;;;;;;4976211;28;20137;-81
2023/08/30 03:36:38;;;;;;;2.85;1.60;;;;;;;;;;4977643;28;20034;-80
2023/08/30 03:39:03;;;;;;;3.47;2.00;;;;;;;;;;4975711;28;20057;-81
2023/08/30 03:41:29;;;;;;;3.28;1.77;;;;;;;;;;4979230;28;20506;-81
2023/08/30 03:43:55;;;;;;;2.70;1.98;;;;;;;;;;4979998;28;20042;-81
2023/08/30 03:46:20;;;;;;;2.83;1.90;;;;;;;;;;4954137;28;20625;-81
2023/08/30 03:48:46;;;;;;;3.33;2.10;;;;;;;;;;4965848;28;20039;-80
2023/08/30 03:51:11;;;;;;;3.22;2.05;;;;;;;;;;4959692;28;20035;-80
2023/08/30 03:53:37;;;;;;;3.20;2.05;;;;;;;;;;4972377;28;20516;-80
2023/08/30 03:56:05;;;;;;;2.33;2.08;;;;;;;;;;4977173;28;20130;-80
2023/08/30 03:58:31;;;;;;;2.83;2.03;;;;;;;;;;4979634;28;20031;-80
2023/08/30 04:00:57;;;;;;;2.67;2.08;;;;;;;;;;4970763;28;20045;-80
2023/08/30 04:03:23;;;;;;;2.45;1.83;;;;;;;;;;4990904;28;20117;-83
2023/08/30 04:05:54;;;;;;;2.50;2.13;;;;;;;;;;4977791;28;20411;-81
2023/08/30 04:08:20;;;;;;;3.15;2.05;;;;;;;;;;5005585;28;20459;-83
2023/08/30 04:10:48;;;;;;;4.93;2.40;;;;;;;;;;4994453;28;20030;-82
2023/08/30 04:13:15;;;;;;;2.40;2.20;;;;;;;;;;4982857;28;20125;-83
2023/08/30 04:15:40;;;;;;;3.30;2.08;;;;;;;;;;4983576;28;20124;-83
2023/08/30 04:18:08;;;;;;;3.25;2.58;;;;;;;;;;4985004;28;20034;-82
2023/08/30 04:20:34;;;;;;;5.63;2.60;;;;;;;;;;4996088;28;20038;-82
2023/08/30 04:23:03;;;;;;;3.42;2.40;;;;;;;;;;4986100;28;20037;-82
2023/08/30 04:25:30;;;;;;;2.95;2.30;;;;;;;;;;4984789;28;20458;-81
2023/08/30 04:27:57;;;;;;;3.63;2.60;;;;;;;;;;4972758;28;20077;-80
2023/08/30 04:30:23;;;;;;;4.95;2.80;;;;;;;;;;4975766;28;20064;-81
2023/08/30 04:32:48;;;;;;;2.97;2.17;;;;;;;;;;4979515;28;20038;-84
2023/08/30 04:35:14;;;;;;;3.50;2.15;;;;;;;;;;4989538;28;20196;-83
2023/08/30 04:37:42;;;;;;;5.10;2.60;;;;;;;;;;4983369;28;20062;-83
2023/08/30 04:40:09;;;;;;;3.63;2.67;;;;;;;;;;4994038;28;20035;-83
2023/08/30 04:42:35;;;;;;;4.45;2.30;;;;;;;;;;4974576;28;20038;-84
2023/08/30 04:45:02;;;;;;;3.22;2.70;;;;;;;;;;4984710;28;20065;-84
2023/08/30 04:47:29;;;;;;;6.47;2.80;;;;;;;;;;4988942;28;20058;-83
2023/08/30 04:49:56;;;;;;;2.90;2.35;;;;;;;;;;4994185;28;20034;-84
2023/08/30 04:52:21;;;;;;;3.35;2.53;;;;;;;;;;5003489;28;20381;-84
2023/08/30 04:54:49;;;;;;;4.43;2.78;;;;;;;;;;4966980;28;20031;-84
2023/08/30 04:57:17;;;;;;;4.03;2.40;;;;;;;;;;4986180;28;20041;-84
2023/08/30 04:59:44;;;;;;;4.38;2.58;;;;;;;;;;5000904;28;20038;-83
2023/08/30 05:02:10;;;;;;;3.47;2.60;;;;;;;;;;4997613;28;20043;-85
2023/08/30 05:04:43;;;;;;;3.90;2.85;;;;;;;;;;4992439;28;20039;-84
2023/08/30 05:07:08;;;;;;;3.10;2.08;;;;;;;;;;4997762;28;20427;-83
2023/08/30 05:09:34;;;;;;;4.65;2.85;;;;;;;;;;5002992;28;20550;-83
2023/08/30 05:12:01;;;;;;;4.15;2.80;;;;;;;;;;4998573;28;20424;-82
2023/08/30 05:14:26;;;;;;;4.05;2.67;;;;;;;;;;5006694;28;20040;-83
2023/08/30 05:16:52;;;;;;;4.43;2.90;;;;;;;;;;5006603;28;20026;-82
2023/08/30 05:19:18;;;;;;;3.08;2.60;;;;;;;;;;4980891;28;20034;-81
2023/08/30 05:21:44;;;;;;;3.47;2.90;;;;;;;;;;4986732;28;20044;-82
2023/08/30 05:24:10;;;;;;;3.20;2.83;;;;;;;;;;4996521;28;20038;-81
2023/08/30 05:26:36;;;;;;;3.25;2.92;;;;;;;;;;4994075;28;20122;-80
2023/08/30 05:29:02;;;;;;;2.63;2.33;;;;;;;;;;4981134;28;20109;-83
2023/08/30 05:31:28;;;;;;;3.35;2.53;;;;;;;;;;4977100;28;20038;-82
2023/08/30 05:34:12;;;;;;;2.90;2.40;;;;;;;;;;4992453;28;20149;-83
2023/08/30 05:36:56;;;;;;;3.20;2.80;;;;;;;;;;4988988;28;20234;-82
2023/08/30 05:39:41;;;;;;;4.00;2.40;;;;;;;;;;4992437;28;20059;-83
2023/08/30 05:42:07;;;;;;;6.82;2.60;;;;;;;;;;4985203;28;20578;-83
2023/08/30 05:44:32;;;;;;;3.00;2.63;;;;;;;;;;4989040;28;20038;-83
2023/08/30 05:46:58;;;;;;;3.75;2.70;;;;;;;;;;4988310;28;20118;-83
2023/08/30 05:49:23;;;;;;;3.17;2.50;;;;;;;;;;4983881;28;20117;-83
2023/08/30 05:51:49;;;;;;;3.83;2.40;;;;;;;;;;4961094;28;20041;-83
2023/08/30 05:54:16;;;;;;;4.88;2.70;;;;;;;;;;4992904;28;20493;-83
2023/08/30 05:56:42;;;;;;;4.03;2.70;;;;;;;;;;4984590;28;20039;-84
2023/08/30 05:59:08;;;;;;;3.17;2.40;;;;;;;;;;4982687;28;20037;-84
2023/08/30 06:01:35;;;;;;;6.00;2.50;;;;;;;;;;4993473;28;20121;-83
2023/08/30 06:04:00;;;;;;;3.05;2.33;;;;;;;;;;4972152;28;20034;-85
2023/08/30 06:06:27;;;;;;;2.90;2.40;;;;;;;;;;4993030;28;20444;-84
2023/08/30 06:08:52;;;;;;;3.30;2.25;;;;;;;;;;4995745;28;20048;-84
2023/08/30 06:11:18;;;;;;;5.38;2.50;;;;;;;;;;4997776;28;20026;-82
2023/08/30 06:13:44;;;;;;;3.70;2.30;;;;;;;;;;4994326;28;20038;-81
2023/08/30 06:16:09;;;;;;;2.40;2.20;;;;;;;;;;4995096;28;20034;-80
2023/08/30 06:18:37;;;;;;;5.78;2.67;;;;;;;;;;4992089;28;20037;-80
2023/08/30 06:21:03;;;;;;;3.95;2.75;;;;;;;;;;4964157;28;20116;-82
2023/08/30 06:23:29;;;;;;;4.40;2.60;;;;;;;;;;4978977;28;20070;-81
2023/08/30 06:25:56;;;;;;;3.28;2.53;;;;;;;;;;4995514;28;20115;-82
2023/08/30 06:28:22;;;;;;;3.10;2.50;;;;;;;;;;4985311;28;20049;-81
2023/08/30 06:30:47;;;;;;;4.00;2.78;;;;;;;;;;4955282;28;20027;-80
2023/08/30 06:33:13;;;;;;;4.55;2.60;;;;;;;;;;4991845;28;20053;-83
2023/08/30 06:35:39;;;;;;;6.10;2.80;;;;;;;;;;4987846;28;20038;-81
2023/08/30 06:38:05;;;;;;;4.88;2.53;;;;;;;;;;4985297;28;20090;-82
2023/08/30 06:40:31;;;;;;;4.07;2.70;;;;;;;;;;4991655;28;20068;-82
2023/08/30 06:42:57;;;;;;;4.30;2.88;;;;;;;;;;5000713;28;20057;-83
2023/08/30 06:45:22;;;;;;;3.40;2.70;;;;;;;;;;5002874;28;20038;-81
2023/08/30 06:47:54;;;;;;;5.68;2.95;;;;;;;;;;4989945;28;20037;-81
2023/08/30 06:50:19;;;;;;;4.15;3.00;;;;;;;;;;4992880;28;20040;-81
2023/08/30 06:52:45;;;;;;;5.22;3.17;;;;;;;;;;4969359;28;20121;-82
2023/08/30 06:55:10;;;;;;;3.80;3.03;;;;;;;;;;4998799;28;20199;-80
2023/08/30 06:57:36;;;;;;;4.60;3.25;;;;;;;;;;5000476;28;20031;-81
2023/08/30 07:00:07;;;;;;;4.18;2.92;;;;;;;;;;4992950;28;20193;-81
2023/08/30 07:02:37;;;;;;;4.53;3.22;;;;;;;;;;4985424;28;20042;-81
2023/08/30 07:05:04;;;;;;;6.45;3.25;;;;;;;;;;4992330;28;20065;-81
2023/08/30 07:07:30;;;;;;;4.95;3.53;;;;;;;;;;4992652;28;20477;-83
2023/08/30 07:09:56;;;;;;;4.68;3.67;;;;;;;;;;4988814;28;20043;-83
2023/08/30 07:12:22;;;;;;;5.05;3.10;;;;;;;;;;4986830;28;20122;-82
2023/08/30 07:14:47;;;;;;;4.28;3.53;;;;;;;;;;4980303;28;20037;-81
2023/08/30 07:17:12;;;;;;;4.95;3.50;;;;;;;;;;4983494;28;20046;-82
2023/08/30 07:19:38;;;;;;;5.43;3.72;;;;;;;;;;4984814;28;20029;-81
2023/08/30 07:22:04;;;;;;;8.38;3.75;;;;;;;;;;4979900;28;20035;-80
2023/08/30 07:24:29;;;;;;;5.78;3.70;;;;;;;;;;4990215;28;20042;-82
2023/08/30 07:26:55;;;;;;;4.82;3.58;;;;;;;;;;4990177;28;20408;-80
2023/08/30 07:29:20;;;;;;;5.20;3.60;;;;;;;;;;4995026;28;20045;-82
2023/08/30 07:31:46;;;;;;;4.72;3.90;;;;;;;;;;4994499;28;20096;-81
2023/08/30 07:34:12;;;;;;;4.65;4.00;;;;;;;;;;4991368;28;20041;-81
2023/08/30 07:36:37;;;;;;;6.63;4.22;;;;;;;;;;4982171;28;20035;-81
2023/08/30 07:39:03;;;;;;;4.95;3.83;;;;;;;;;;4983591;28;20440;-84
2023/08/30 07:41:29;;;;;;;5.88;4.18;;;;;;;;;;4975304;28;20053;-83
2023/08/30 07:43:55;;;;;;;5.10;4.00;;;;;;;;;;4981846;28;20038;-82
2023/08/30 07:46:20;;;;;;;5.80;4.20;;;;;;;;;;4985482;28;20030;-83
2023/08/30 07:48:46;;;;;;;5.53;4.30;;;;;;;;;;4994794;28;20053;-81
2023/08/30 07:51:11;;;;;;;4.40;3.80;;;;;;;;;;5000653;28;20042;-84
2023/08/30 07:53:37;;;;;;;5.18;4.20;;;;;;;;;;5002167;28;20038;-86
2023/08/30 07:56:02;;;;;;;6.00;3.90;;;;;;;;;;5009002;28;20054;-84
2023/08/30 07:58:28;;;;;;;4.80;3.63;;;;;;;;;;5001657;28;20039;-83
2023/08/30 08:00:53;;;;;;;5.72;4.20;;;;;;;;;;4999733;28;20033;-83
2023/08/30 08:03:21;;;;;;;4.93;3.83;;;;;;;;;;5001693;28;20037;-83
2023/08/30 08:05:46;;;;;;;6.32;4.20;;;;;;;;;;4988177;28;20038;-85
2023/08/30 08:08:12;;;;;;;5.93;3.70;;;;;;;;;;5005362;28;20082;-85
2023/08/30 08:10:37;;;;;;;5.70;3.83;;;;;;;;;;4995076;28;20034;-84
2023/08/30 08:13:06;;;;;;;4.82;3.92;;;;;;;;;;5005833;28;20038;-82
2023/08/30 08:15:32;;;;;;;4.60;4.10;;;;;;;;;;5000981;28;20037;-83
2023/08/30 08:17:57;;;;;;;7.32;4.00;;;;;;;;;;5011963;28;20029;-84
2023/08/30 08:20:23;;;;;;;5.10;4.07;;;;;;;;;;4997144;28;20050;-80
2023/08/30 08:22:49;;;;;;;6.18;4.13;;;;;;;;;;4990737;28;20102;-84
2023/08/30 08:25:15;;;;;;;4.85;4.07;;;;;;;;;;5009960;28;20027;-83
2023/08/30 08:27:41;;;;;;;6.10;3.85;;;;;;;;;;5004879;28;20112;-84
2023/08/30 08:30:09;;;;;;;8.07;4.18;;;;;;;;;;5011394;28;20030;-82
2023/08/30 08:32:34;;;;;;;5.82;3.90;;;;;;;;;;5010438;28;20053;-85
2023/08/30 08:35:00;;;;;;;4.72;3.85;;;;;;;;;;5003122;28;20043;-82
2023/08/30 08:37:26;;;;;;;4.35;3.80;;;;;;;;;;5003764;28;20121;-84
2023/08/30 08:39:51;;;;;;;6.10;4.03;;;;;;;;;;5005019;28;20042;-85
2023/08/30 08:42:22;;;;;;;7.05;3.80;;;;;;;;;;5000183;28;20034;-84
2023/08/30 08:44:50;;;;;;;4.72;3.90;;;;;;;;;;4993738;28;20115;-84
2023/08/30 08:47:17;;;;;;;4.70;3.30;;;;;;;;;;5000269;28;20094;-84
2023/08/30 08:49:43;;;;;;;4.45;3.17;;;;;;;;;;4994737;28;20590;-84
2023/08/30 08:52:09;;;;;;;4.15;3.45;;;;;;;;;;5015857;28;20037;-84
2023/08/30 08:54:38;;;;;;;6.82;3.60;;;;;;;;;;4997261;28;20092;-83
2023/08/30 08:57:05;;;;;;;5.15;3.00;;;;;;;;;;5000297;28;20485;-83
2023/08/30 08:59:31;;;;;;;3.33;2.83;;;;;;;;;;4998643;28;20041;-84
2023/08/30 09:01:57;;;;;;;4.90;2.97;;;;;;;;;;4964174;28;20026;-83
2023/08/30 09:04:23;;;;;;;4.43;2.70;;;;;;;;;;5000600;28;20081;-83
2023/08/30 09:06:50;;;;;;;3.70;2.78;;;;;;;;;;4992179;28;20015;-83
2023/08/30 09:09:15;;;;;;;3.67;2.63;;;;;;;;;;4995062;28;20030;-82
2023/08/30 09:11:41;;;;;;;4.88;2.97;;;;;;;;;;4993609;28;20108;-83
2023/08/30 09:14:08;;;;;;;5.30;3.03;;;;;;;;;;5001342;28;20078;-83
2023/08/30 09:16:34;;;;;;;3.30;2.90;;;;;;;;;;4991352;28;20053;-83
2023/08/30 09:19:03;;;;;;;3.85;2.70;;;;;;;;;;4994372;28;20400;-82
2023/08/30 09:21:31;;;;;;;3.78;2.78;;;;;;;;;;5003474;28;20042;-84
2023/08/30 09:24:04;;;;;;;3.17;2.40;;;;;;;;;;4999582;28;20591;-84
2023/08/30 09:26:31;;;;;;;2.95;2.38;;;;;;;;;;4996727;28;20134;-83
2023/08/30 09:29:04;;;;;;;3.72;2.75;;;;;;;;;;4984333;28;20037;-83
2023/08/30 09:31:37;;;;;;;3.00;2.50;;;;;;;;;;5003739;28;20065;-83
2023/08/30 09:34:03;;;;;;;3.57;2.20;;;;;;;;;;5001690;28;20038;-83
2023/08/30 09:36:38;;;;;;;2.97;2.17;;;;;;;;;;5002275;28;20523;-84
2023/08/30 09:39:10;;;;;;;4.38;2.40;;;;;;;;;;4995485;28;20041;-83
2023/08/30 09:41:37;;;;;;;4.28;2.17;;;;;;;;;;5015004;28;20050;-83
2023/08/30 09:44:07;;;;;;;3.42;2.13;;;;;;;;;;5010056;28;20407;-82
2023/08/30 09:46:40;;;;;;;2.50;2.00;;;;;;;;;;5007872;28;20499;-82
2023/08/30 09:49:05;;;;;;;4.28;2.08;;;;;;;;;;4997091;28;20380;-82
2023/08/30 09:51:34;;;;;;;3.40;2.30;;;;;;;;;;5003403;28;20041;-83
2023/08/30 09:54:04;;;;;;;3.40;2.13;;;;;;;;;;5004003;28;20049;-83
2023/08/30 09:56:32;;;;;;;3.13;2.08;;;;;;;;;;4977607;28;20029;-83
2023/08/30 09:58:59;;;;;;;3.30;2.00;;;;;;;;;;5008097;28;20041;-84
2023/08/30 10:01:28;;;;;;;2.55;2.05;;;;;;;;;;5011866;28;20028;-82
2023/08/30 10:03:56;;;;;;;3.42;1.98;;;;;;;;;;4987570;28;20035;-83
2023/08/30 10:06:24;;;;;;;2.35;1.80;;;;;;;;;;5004948;28;20408;-84
2023/08/30 10:08:51;;;;;;;2.45;1.70;;;;;;;;;;5006751;28;20034;-85
2023/08/30 10:11:18;;;;;;;2.50;1.60;;;;;;;;;;5006247;28;20034;-84
2023/08/30 10:13:45;;;;;;;2.20;1.60;;;;;;;;;;4999349;28;20025;-85
2023/08/30 10:16:19;;;;;;;2.13;1.70;;;;;;;;;;4994439;28;20046;-84
2023/08/30 10:18:50;;;;;;;1.80;1.45;;;;;;;;;;4984627;28;20034;-84
2023/08/30 10:21:18;;;;;;;2.17;1.60;;;;;;;;;;4992495;28;20422;-85
2023/08/30 10:23:46;;;;;;;1.70;1.25;;;;;;;;;;4995257;28;20027;-85
2023/08/30 10:26:13;;;;;;;2.20;1.40;;;;;;;;;;4990819;28;20057;-85
2023/08/30 10:28:39;;;;;;;2.25;1.33;;;;;;;;;;4979780;28;20034;-88
2023/08/30 10:31:05;;;;;;;1.38;1.20;;;;;;;;;;4989169;28;20030;-85
2023/08/30 10:33:31;;;;;;;1.92;1.40;;;;;;;;;;4992148;28;20399;-86
2023/08/30 10:36:05;;;;;;;2.22;1.50;;;;;;;;;;4995932;28;20045;-84
2023/08/30 10:38:32;;;;;;;2.05;1.30;;;;;;;;;;4987488;28;20034;-84
2023/08/30 10:41:08;;;;;;;1.38;1.20;;;;;;;;;;4987023;28;20423;-84
2023/08/30 10:43:36;;;;;;;2.45;1.23;;;;;;;;;;4979312;28;20042;-86
2023/08/30 10:46:04;;;;;;;2.47;1.40;;;;;;;;;;4984300;28;20069;-83
2023/08/30 10:48:40;;;;;;;4.45;1.88;;;;;;;;;;5005582;28;20113;-84
2023/08/30 10:51:41;;;;;;;2.10;1.30;;;;;;;;;;4991542;28;20024;-86
2023/08/30 10:54:25;;;;;;;2.35;1.38;;;;;;;;;;4939288;28;20038;-84
2023/08/30 10:57:01;;;;;;;2.03;1.10;;;;;;;;;;4992461;28;20069;-83
2023/08/30 10:59:29;;;;;;;1.65;1.10;;;;;;;;;;4999485;28;20117;-84
2023/08/30 11:01:58;;;;;;;2.30;1.40;;;;;;;;;;4997128;28;20034;-84
2023/08/30 11:04:24;;;;;;;1.38;1.10;;;;;;;;;;4991107;28;20026;-82
2023/08/30 11:06:51;;;;;;;1.50;1.10;;;;;;;;;;4969310;28;20039;-83
2023/08/30 11:09:21;;;;;;;1.60;1.10;;;;;;;;;;4992691;28;20522;-82
2023/08/30 11:11:48;;;;;;;7.25;1.58;;;;;;;;;;4978724;28;20031;-83
2023/08/30 11:14:14;;;;;;;1.50;1.20;;;;;;;;;;4994005;28;20526;-84
2023/08/30 11:16:39;;;;;;;1.80;1.25;;;;;;;;;;4958494;28;20053;-82
2023/08/30 11:19:07;;;;;;;2.20;1.20;;;;;;;;;;4978798;28;20034;-84
2023/08/30 11:21:42;;;;;;;1.60;1.05;;;;;;;;;;4993679;28;20076;-86
2023/08/30 11:24:09;;;;;;;4.20;1.00;;;;;;;;;;4975201;28;20038;-86
2023/08/30 11:26:35;;;;;;;2.20;1.20;;;;;;;;;;4984653;28;20073;-86
2023/08/30 11:29:05;;;;;;;1.00;0.90;;;;;;;;;;4983959;28;20251;-86
2023/08/30 11:31:30;;;;;;;1.77;1.10;;;;;;;;;;4993991;28;20247;-87
2023/08/30 11:33:58;;;;;;;2.20;1.25;;;;;;;;;;4994983;28;20034;-87
2023/08/30 11:36:28;;;;;;;2.35;0.90;;;;;;;;;;4977643;28;20025;-89
2023/08/30 11:38:55;;;;;;;2.80;1.02;;;;;;;;;;4983313;28;20038;-88
2023/08/30 11:41:21;;;;;;;1.10;1.00;;;;;;;;;;4988856;28;20030;-89
2023/08/30 11:43:51;;;;;;;1.33;1.00;;;;;;;;;;4988895;28;20062;-89
2023/08/30 11:46:19;;;;;;;1.48;0.90;;;;;;;;;;4984912;28;20044;-90
2023/08/30 11:48:47;;;;;;;4.15;1.20;;;;;;;;;;4999357;28;20039;-89
2023/08/30 11:51:13;;;;;;;1.00;0.90;;;;;;;;;;4998300;28;20025;-87
2023/08/30 11:53:39;;;;;;;1.45;0.88;;;;;;;;;;4990381;28;20166;-87
2023/08/30 11:56:06;;;;;;;2.60;0.90;;;;;;;;;;4997136;28;20022;-86
2023/08/30 11:58:33;;;;;;;2.47;1.08;;;;;;;;;;5001753;28;20033;-86
2023/08/30 12:00:59;;;;;;;2.70;1.10;;;;;;;;;;5005278;28;20105;-87
2023/08/30 12:03:27;;;;;;;4.82;1.35;;;;;;;;;;4980146;28;20061;-87
2023/08/30 12:05:52;;;;;;;4.45;1.20;;;;;;;;;;4987231;28;20057;-86
2023/08/30 12:08:23;;;;;;;2.33;1.10;;;;;;;;;;4998746;28;20038;-86
2023/08/30 12:10:49;;;;;;;1.52;1.25;;;;;;;;;;4985122;28;20093;-86
2023/08/30 12:13:32;;;;;;;1.67;1.13;;;;;;;;;;4991167;28;20022;-86
2023/08/30 12:15:58;;;;;;;13.98;8.57;;;;;;;;;;4989901;28;20111;-85
2023/08/30 12:18:32;;;;;;;5.20;3.10;;;;;;;;;;4989907;28;20109;-86
2023/08/30 12:21:04;;;;;;;4.63;2.17;;;;;;;;;;4966176;28;20034;-88
2023/08/30 12:23:32;;;;;;;8.40;1.73;;;;;;;;;;4962280;28;20058;-85
2023/08/30 12:26:11;;;;;;;6.25;1.33;;;;;;;;;;4993086;28;20101;-87
2023/08/30 12:28:38;;;;;;;5.82;1.50;;;;;;;;;;4992119;28;20035;-88
2023/08/30 12:31:04;;;;;;;11.27;1.52;;;;;;;;;;4978559;28;20045;-85
2023/08/30 12:33:31;;;;;;;3.65;1.38;;;;;;;;;;4980900;28;20073;-86
2023/08/30 12:35:57;;;;;;;2.22;1.20;;;;;;;;;;4984584;28;20543;-84
2023/08/30 12:38:23;;;;;;;1.83;1.20;;;;;;;;;;4969748;28;20029;-84
2023/08/30 12:40:53;;;;;;;2.05;1.10;;;;;;;;;;4994900;28;20038;-84
2023/08/30 12:43:20;;;;;;;3.05;1.10;;;;;;;;;;4999400;28;20030;-85
2023/08/30 12:45:46;;;;;;;2.03;1.17;;;;;;;;;;4988557;28;20376;-84
2023/08/30 12:48:16;;;;;;;2.38;1.85;;;;;;;;;;4984355;28;20432;-86
2023/08/30 12:50:44;;;;;;;1.90;1.23;;;;;;;;;;4994989;28;20737;-87
2023/08/30 12:53:10;;;;;;;1.33;1.10;;;;;;;;;;4983441;28;20022;-86
2023/08/30 12:55:36;;;;;;;1.65;1.00;;;;;;;;;;5009431;28;20065;-85
2023/08/30 12:58:04;;;;;;;2.47;1.13;;;;;;;;;;4979895;28;20400;-85
2023/08/30 13:00:30;;;;;;;1.60;1.00;;;;;;;;;;4979824;28;20022;-85
2023/08/30 13:02:55;;;;;;;1.98;1.13;;;;;;;;;;4998650;28;20019;-84
2023/08/30 13:05:21;;;;;;;1.65;1.10;;;;;;;;;;5003904;28;20033;-85
2023/08/30 13:07:47;;;;;;;1.40;1.10;;;;;;;;;;4982248;28;20026;-86
2023/08/30 13:10:13;;;;;;;6.53;4.60;;;;;;;;;;4987861;28;20111;-84
2023/08/30 13:12:40;;;;;;;21.58;16.27;;;;;;;;;;4996924;28;20057;-81
2023/08/30 13:15:06;;;;;;;2.35;1.58;;;;;;;;;;4968477;28;20041;-84
2023/08/30 13:17:32;;;;;;;1.27;1.10;;;;;;;;;;4979064;28;20023;-83
2023/08/30 13:19:58;;;;;;;3.95;1.20;;;;;;;;;;4986197;28;20040;-84
2023/08/30 13:22:24;;;;;;;1.52;1.00;;;;;;;;;;4973830;28;20037;-86
2023/08/30 13:24:50;;;;;;;1.98;1.10;;;;;;;;;;4987984;28;20026;-88
2023/08/30 13:27:16;;;;;;;2.97;1.00;;;;;;;;;;4984736;28;20062;-86
2023/08/30 13:29:41;;;;;;;2.25;1.10;;;;;;;;;;4993750;28;20038;-88
2023/08/30 13:32:07;;;;;;;1.60;1.10;;;;;;;;;;4994283;28;20122;-85
2023/08/30 13:34:32;;;;;;;1.98;1.05;;;;;;;;;;4989510;28;20121;-85
2023/08/30 13:36:58;;;;;;;1.27;1.00;;;;;;;;;;4984174;28;20109;-87
2023/08/30 13:39:23;;;;;;;7.20;1.20;;;;;;;;;;4990854;28;20110;-85
2023/08/30 13:41:49;;;;;;;1.60;0.93;;;;;;;;;;4993640;28;20069;-85
2023/08/30 13:44:15;;;;;;;1.73;0.98;;;;;;;;;;4989147;28;20034;-85
2023/08/30 13:46:40;;;;;;;3.40;1.00;;;;;;;;;;4985644;28;20080;-87
2023/08/30 13:49:06;;;;;;;1.55;1.00;;;;;;;;;;4987096;28;20050;-85
2023/08/30 13:51:31;;;;;;;1.33;0.88;;;;;;;;;;4991545;28;20169;-84
2023/08/30 13:53:57;;;;;;;1.70;1.20;;;;;;;;;;4992228;28;20034;-88
2023/08/30 13:56:23;;;;;;;1.63;1.00;;;;;;;;;;5003693;28;20026;-87
2023/08/30 13:58:49;;;;;;;1.75;1.00;;;;;;;;;;5001014;28;20110;-88
2023/08/30 14:01:14;;;;;;;1.83;1.17;;;;;;;;;;4991070;28;20147;-86
2023/08/30 14:03:40;;;;;;;1.63;1.00;;;;;;;;;;5000265;28;20026;-90
2023/08/30 14:06:05;;;;;;;2.90;1.20;;;;;;;;;;5005820;28;20037;-88
2023/08/30 14:08:31;;;;;;;1.20;1.00;;;;;;;;;;4981523;28;20031;-88
2023/08/30 14:10:56;;;;;;;2.35;1.17;;;;;;;;;;4997360;28;20367;-87
2023/08/30 14:13:22;;;;;;;2.75;1.10;;;;;;;;;;4988301;28;20066;-89
2023/08/30 14:15:48;;;;;;;1.50;1.00;;;;;;;;;;4991271;28;20062;-88
2023/08/30 14:18:14;;;;;;;1.42;0.88;;;;;;;;;;5008363;28;20061;-87
2023/08/30 14:20:41;;;;;;;1.85;0.90;;;;;;;;;;4998455;28;20030;-86
2023/08/30 14:23:06;;;;;;;2.28;1.00;;;;;;;;;;4993217;28;20031;-87
2023/08/30 14:25:32;;;;;;;3.28;1.00;;;;;;;;;;4988042;28;20133;-85
2023/08/30 14:27:59;;;;;;;2.17;1.13;;;;;;;;;;4992790;28;20018;-86
2023/08/30 14:30:26;;;;;;;1.58;0.95;;;;;;;;;;4995839;28;20046;-87
2023/08/30 14:32:51;;;;;;;4.90;1.13;;;;;;;;;;4992622;28;20096;-87
2023/08/30 14:35:20;;;;;;;1.10;0.90;;;;;;;;;;4961824;28;20659;-88
2023/08/30 14:37:47;;;;;;;1.88;1.10;;;;;;;;;;4981866;28;20034;-87
2023/08/30 14:40:13;;;;;;;1.27;1.00;;;;;;;;;;4977503;28;20096;-84
2023/08/30 14:42:38;;;;;;;1.90;1.10;;;;;;;;;;4992564;28;20041;-86